createdAt,value
2018-09-01T00:00:42.810Z,13.36
2018-09-01T00:03:10.871Z,13.29
2018-09-01T00:05:38.960Z,13.22
2018-09-01T00:08:07.182Z,13.20
2018-09-01T00:10:35.263Z,13.18
2018-09-01T00:13:03.349Z,13.14
2018-09-01T00:15:31.431Z,13.10
2018-09-01T00:17:59.710Z,13.03
2018-09-01T00:20:27.794Z,12.98
2018-09-01T00:22:55.854Z,12.95
2018-09-01T00:25:23.955Z,12.92
2018-09-01T00:27:52.026Z,12.89
2018-09-01T00:30:20.086Z,12.86
2018-09-01T00:32:48.178Z,12.82
2018-09-01T00:35:16.250Z,12.76
2018-09-01T00:37:49.687Z,12.71
2018-09-01T00:40:17.780Z,12.68
2018-09-01T00:42:45.918Z,12.63
2018-09-01T00:45:14.147Z,12.59
2018-09-01T00:47:42.211Z,12.56
2018-09-01T00:50:10.278Z,12.54
2018-09-01T00:52:38.395Z,12.53
2018-09-01T00:55:10.653Z,12.51
2018-09-01T00:57:38.720Z,12.49
2018-09-01T01:00:06.818Z,12.47
2018-09-01T01:02:34.886Z,12.42
2018-09-01T01:05:02.968Z,12.39
2018-09-01T01:07:31.033Z,12.34
2018-09-01T01:09:59.106Z,12.30
2018-09-01T01:12:27.336Z,12.26
2018-09-01T01:14:55.391Z,12.24
2018-09-01T01:17:23.475Z,12.22
2018-09-01T01:19:51.721Z,12.19
2018-09-01T01:22:19.820Z,12.15
2018-09-01T01:24:47.932Z,12.13
2018-09-01T01:27:16.013Z,12.11
2018-09-01T01:29:44.108Z,12.07
2018-09-01T01:32:12.225Z,12.03
2018-09-01T01:34:40.278Z,12.01
2018-09-01T01:37:08.375Z,11.96
2018-09-01T01:39:36.512Z,11.92
2018-09-01T01:42:04.957Z,11.90
2018-09-01T01:44:33.055Z,11.87
2018-09-01T01:47:01.150Z,11.85
2018-09-01T01:49:29.251Z,11.84
2018-09-01T01:51:57.336Z,11.83
2018-09-01T01:54:25.439Z,11.81
2018-09-01T01:56:53.523Z,11.75
2018-09-01T01:59:21.605Z,11.73
2018-09-01T02:01:49.672Z,11.71
2018-09-01T02:04:17.797Z,11.69
2018-09-01T02:06:45.916Z,11.65
2018-09-01T02:09:13.994Z,11.63
2018-09-01T02:11:42.049Z,11.61
2018-09-01T02:14:10.160Z,11.60
2018-09-01T02:16:38.217Z,11.60
2018-09-01T02:19:06.575Z,11.58
2018-09-01T02:21:34.649Z,11.55
2018-09-01T02:24:02.727Z,11.53
2018-09-01T02:26:30.835Z,11.51
2018-09-01T02:28:58.886Z,11.48
2018-09-01T02:31:26.950Z,11.44
2018-09-01T02:33:55.257Z,11.41
2018-09-01T02:36:23.330Z,11.39
2018-09-01T02:38:51.428Z,11.38
2018-09-01T02:41:19.743Z,11.36
2018-09-01T02:43:47.820Z,11.36
2018-09-01T02:46:15.916Z,11.37
2018-09-01T02:48:44.147Z,11.35
2018-09-01T02:51:12.211Z,11.34
2018-09-01T02:53:40.286Z,11.34
2018-09-01T02:56:08.362Z,11.31
2018-09-01T02:58:36.590Z,11.27
2018-09-01T03:01:09.899Z,11.25
2018-09-01T03:03:38.026Z,11.23
2018-09-01T03:06:06.090Z,11.18
2018-09-01T03:08:34.209Z,11.17
2018-09-01T03:11:03.126Z,11.16
2018-09-01T03:13:31.182Z,11.13
2018-09-01T03:15:59.243Z,11.08
2018-09-01T03:18:27.358Z,11.00
2018-09-01T03:20:55.461Z,11.00
2018-09-01T03:23:23.567Z,10.98
2018-09-01T03:25:51.643Z,10.97
2018-09-01T03:28:20.722Z,10.97
2018-09-01T03:30:48.815Z,10.98
2018-09-01T03:33:16.887Z,10.97
2018-09-01T03:35:44.958Z,10.96
2018-09-01T03:38:13.035Z,10.96
2018-09-01T03:40:41.170Z,10.93
2018-09-01T03:43:09.293Z,10.88
2018-09-01T03:45:37.370Z,10.85
2018-09-01T03:48:05.461Z,10.83
2018-09-01T03:50:33.533Z,10.82
2018-09-01T03:53:01.591Z,10.77
2018-09-01T03:55:29.702Z,10.76
2018-09-01T03:57:57.768Z,10.71
2018-09-01T04:00:27.200Z,10.67
2018-09-01T04:02:55.918Z,10.65
2018-09-01T04:05:23.998Z,10.63
2018-09-01T04:07:52.072Z,10.61
2018-09-01T04:10:20.157Z,10.61
2018-09-01T04:12:48.338Z,10.60
2018-09-01T04:15:16.456Z,10.57
2018-09-01T04:17:44.522Z,10.57
2018-09-01T04:20:12.735Z,10.55
2018-09-01T04:22:40.808Z,10.52
2018-09-01T04:25:08.879Z,10.51
2018-09-01T04:27:37.102Z,10.48
2018-09-01T04:30:05.715Z,10.45
2018-09-01T04:32:34.061Z,10.42
2018-09-01T04:35:02.154Z,10.38
2018-09-01T04:37:30.278Z,10.38
2018-09-01T04:39:58.346Z,10.36
2018-09-01T04:42:26.443Z,10.37
2018-09-01T04:44:54.524Z,10.37
2018-09-01T04:47:22.577Z,10.36
2018-09-01T04:49:50.693Z,10.37
2018-09-01T04:52:18.757Z,10.39
2018-09-01T04:54:46.855Z,10.39
2018-09-01T04:57:16.002Z,10.37
2018-09-01T04:59:44.145Z,10.36
2018-09-01T05:02:12.397Z,10.34
2018-09-01T05:04:40.471Z,10.35
2018-09-01T05:07:08.551Z,10.37
2018-09-01T05:09:36.638Z,10.35
2018-09-01T05:12:05.045Z,10.34
2018-09-01T05:14:33.123Z,10.30
2018-09-01T05:17:01.583Z,10.30
2018-09-01T05:19:29.667Z,10.30
2018-09-01T05:21:57.867Z,10.27
2018-09-01T05:24:25.947Z,10.25
2018-09-01T05:26:54.017Z,10.23
2018-09-01T05:29:22.111Z,10.23
2018-09-01T05:31:50.180Z,10.24
2018-09-01T05:34:25.247Z,10.28
2018-09-01T05:36:53.314Z,10.28
2018-09-01T05:39:21.422Z,10.28
2018-09-01T05:41:49.767Z,10.31
2018-09-01T05:44:17.827Z,10.33
2018-09-01T05:46:45.910Z,10.34
2018-09-01T05:49:14.249Z,10.37
2018-09-01T05:51:42.299Z,10.42
2018-09-01T05:54:10.368Z,10.46
2018-09-01T05:56:38.468Z,10.50
2018-09-01T05:59:07.548Z,10.53
2018-09-01T06:01:35.631Z,10.58
2018-09-01T06:04:04.177Z,10.62
2018-09-01T06:06:32.256Z,10.66
2018-09-01T06:09:00.366Z,10.69
2018-09-01T06:11:28.507Z,10.74
2018-09-01T06:13:56.588Z,10.79
2018-09-01T06:16:24.931Z,10.84
2018-09-01T06:18:53.012Z,10.90
2018-09-01T06:21:21.121Z,10.96
2018-09-01T06:23:49.257Z,11.02
2018-09-01T06:26:17.290Z,11.06
2018-09-01T06:28:49.723Z,11.13
2018-09-01T06:31:18.791Z,11.22
2018-09-01T06:33:47.542Z,11.28
2018-09-01T06:36:15.891Z,11.36
2018-09-01T06:38:44.007Z,11.46
2018-09-01T06:41:13.115Z,11.57
2018-09-01T06:43:41.643Z,11.69
2018-09-01T06:46:09.744Z,11.79
2018-09-01T06:48:37.821Z,11.90
2018-09-01T06:51:06.151Z,12.01
2018-09-01T06:53:34.257Z,12.12
2018-09-01T06:56:02.338Z,12.25
2018-09-01T06:58:30.438Z,12.38
2018-09-01T07:01:04.555Z,12.54
2018-09-01T07:03:32.710Z,12.73
2018-09-01T07:06:00.782Z,12.96
2018-09-01T07:08:29.115Z,13.20
2018-09-01T07:10:57.213Z,13.47
2018-09-01T07:13:31.154Z,13.75
2018-09-01T07:15:59.242Z,14.05
2018-09-01T07:18:27.318Z,14.37
2018-09-01T07:20:55.602Z,14.64
2018-09-01T07:23:23.714Z,14.90
2018-09-01T07:25:51.815Z,15.22
2018-09-01T07:28:19.904Z,15.51
2018-09-01T07:30:48.239Z,15.74
2018-09-01T07:33:16.126Z,15.99
2018-09-01T07:35:44.239Z,16.26
2018-09-01T07:38:12.318Z,16.51
2018-09-01T07:40:40.414Z,16.74
2018-09-01T07:43:08.520Z,16.99
2018-09-01T07:45:36.606Z,17.21
2018-09-01T07:48:04.962Z,17.48
2018-09-01T07:50:33.059Z,17.77
2018-09-01T07:53:01.158Z,17.92
2018-09-01T07:55:29.251Z,18.07
2018-09-01T07:57:57.332Z,18.16
2018-09-01T08:00:25.447Z,18.33
2018-09-01T08:02:53.538Z,18.47
2018-09-01T08:05:21.621Z,18.64
2018-09-01T08:07:49.739Z,18.77
2018-09-01T08:10:18.028Z,18.97
2018-09-01T08:12:46.366Z,19.12
2018-09-01T08:15:14.462Z,19.18
2018-09-01T08:17:42.530Z,19.30
2018-09-01T08:20:10.627Z,19.51
2018-09-01T08:22:38.687Z,19.64
2018-09-01T08:25:07.087Z,19.85
2018-09-01T08:27:35.375Z,20.00
2018-09-01T08:30:03.458Z,20.13
2018-09-01T08:32:31.528Z,20.28
2018-09-01T08:34:59.763Z,20.41
2018-09-01T08:37:27.860Z,20.48
2018-09-01T08:39:55.983Z,20.56
2018-09-01T08:42:24.098Z,20.66
2018-09-01T08:44:52.201Z,20.73
2018-09-01T08:47:20.583Z,20.78
2018-09-01T08:49:48.853Z,21.00
2018-09-01T08:52:16.962Z,21.18
2018-09-01T08:54:45.031Z,21.18
2018-09-01T08:57:13.118Z,21.27
2018-09-01T08:59:41.194Z,21.22
2018-09-01T09:02:09.273Z,21.20
2018-09-01T09:04:37.499Z,21.20
2018-09-01T09:07:05.760Z,21.32
2018-09-01T09:09:33.839Z,21.30
2018-09-01T09:12:01.912Z,21.46
2018-09-01T09:14:30.022Z,21.55
2018-09-01T09:16:58.339Z,21.54
2018-09-01T09:19:26.441Z,21.55
2018-09-01T09:21:54.626Z,21.55
2018-09-01T09:24:22.748Z,21.57
2018-09-01T09:26:50.975Z,21.64
2018-09-01T09:29:19.060Z,21.83
2018-09-01T09:31:47.134Z,21.85
2018-09-01T09:34:15.240Z,22.03
2018-09-01T09:36:43.294Z,22.15
2018-09-01T09:39:11.607Z,22.13
2018-09-01T09:41:40.035Z,22.04
2018-09-01T09:44:08.198Z,22.09
2018-09-01T09:46:36.575Z,22.22
2018-09-01T09:49:04.739Z,22.40
2018-09-01T09:51:32.880Z,22.44
2018-09-01T09:54:01.066Z,22.51
2018-09-01T09:56:29.138Z,22.59
2018-09-01T09:58:57.207Z,22.64
2018-09-01T10:01:33.447Z,22.82
2018-09-01T10:04:01.672Z,23.02
2018-09-01T10:06:29.843Z,23.05
2018-09-01T10:08:57.954Z,23.06
2018-09-01T10:11:26.021Z,23.20
2018-09-01T10:13:54.074Z,23.43
2018-09-01T10:16:22.178Z,23.75
2018-09-01T10:18:50.278Z,23.58
2018-09-01T10:21:18.335Z,23.69
2018-09-01T10:23:46.390Z,23.92
2018-09-01T10:26:14.546Z,24.19
2018-09-01T10:28:42.586Z,24.19
2018-09-01T10:31:10.699Z,24.14
2018-09-01T10:33:38.760Z,23.79
2018-09-01T10:36:06.820Z,23.48
2018-09-01T10:38:35.143Z,23.56
2018-09-01T10:41:03.168Z,23.57
2018-09-01T10:43:31.356Z,23.57
2018-09-01T10:45:59.415Z,23.52
2018-09-01T10:48:27.487Z,23.57
2018-09-01T10:50:55.556Z,23.53
2018-09-01T10:53:23.603Z,23.51
2018-09-01T10:55:51.670Z,23.70
2018-09-01T10:58:19.746Z,23.83
2018-09-01T11:00:47.853Z,23.74
2018-09-01T11:03:15.964Z,23.63
2018-09-01T11:05:44.036Z,23.39
2018-09-01T11:08:12.032Z,23.23
2018-09-01T11:10:40.382Z,23.06
2018-09-01T11:13:08.450Z,23.00
2018-09-01T11:15:36.549Z,22.80
2018-09-01T11:18:05.359Z,22.74
2018-09-01T11:20:33.460Z,22.99
2018-09-01T11:23:01.540Z,23.22
2018-09-01T11:25:29.650Z,23.22
2018-09-01T11:27:57.729Z,23.23
2018-09-01T11:30:25.954Z,23.20
2018-09-01T11:32:54.010Z,23.13
2018-09-01T11:35:22.122Z,23.15
2018-09-01T11:37:50.486Z,22.93
2018-09-01T11:40:18.602Z,22.68
2018-09-01T11:42:46.766Z,22.55
2018-09-01T11:45:14.732Z,22.45
2018-09-01T11:47:42.824Z,22.40
2018-09-01T11:50:11.020Z,22.39
2018-09-01T11:52:39.030Z,22.30
2018-09-01T11:55:07.345Z,22.48
2018-09-01T11:57:35.446Z,22.73
2018-09-01T12:00:03.568Z,22.94
2018-09-01T12:02:31.860Z,23.07
2018-09-01T12:04:59.944Z,23.14
2018-09-01T12:07:28.291Z,23.36
2018-09-01T12:09:56.403Z,23.62
2018-09-01T12:12:24.530Z,23.76
2018-09-01T12:14:52.629Z,23.65
2018-09-01T12:17:20.682Z,23.63
2018-09-01T12:19:48.936Z,23.66
2018-09-01T12:22:17.110Z,23.72
2018-09-01T12:24:45.166Z,23.63
2018-09-01T12:27:13.256Z,23.37
2018-09-01T12:29:41.487Z,23.14
2018-09-01T12:32:09.562Z,23.01
2018-09-01T12:34:37.627Z,22.82
2018-09-01T12:37:05.732Z,22.77
2018-09-01T12:39:33.812Z,22.93
2018-09-01T12:42:01.929Z,23.09
2018-09-01T12:44:29.968Z,23.20
2018-09-01T12:46:58.060Z,23.42
2018-09-01T12:49:26.123Z,23.51
2018-09-01T12:51:54.404Z,23.71
2018-09-01T12:54:22.483Z,23.84
2018-09-01T12:56:50.566Z,24.04
2018-09-01T12:59:18.659Z,24.21
2018-09-01T13:01:46.748Z,24.39
2018-09-01T13:04:21.366Z,24.55
2018-09-01T13:06:49.459Z,24.78
2018-09-01T13:09:17.522Z,24.81
2018-09-01T13:11:45.594Z,24.74
2018-09-01T13:14:13.736Z,24.78
2018-09-01T13:16:41.802Z,24.98
2018-09-01T13:19:09.893Z,24.82
2018-09-01T13:21:37.958Z,24.59
2018-09-01T13:24:06.216Z,24.23
2018-09-01T13:26:34.353Z,24.17
2018-09-01T13:29:02.428Z,24.12
2018-09-01T13:31:30.513Z,24.26
2018-09-01T13:33:58.586Z,24.27
2018-09-01T13:36:26.626Z,24.43
2018-09-01T13:38:54.786Z,24.65
2018-09-01T13:41:22.791Z,24.81
2018-09-01T13:43:50.884Z,24.52
2018-09-01T13:46:19.003Z,24.39
2018-09-01T13:48:47.093Z,24.24
2018-09-01T13:51:15.172Z,24.13
2018-09-01T13:53:43.271Z,24.09
2018-09-01T13:56:11.343Z,24.20
2018-09-01T13:58:39.418Z,24.36
2018-09-01T14:01:07.653Z,24.49
2018-09-01T14:03:35.729Z,24.67
2018-09-01T14:06:03.793Z,24.55
2018-09-01T14:08:32.007Z,24.60
2018-09-01T14:11:00.091Z,24.48
2018-09-01T14:13:28.154Z,24.01
2018-09-01T14:15:56.294Z,23.82
2018-09-01T14:18:24.383Z,23.64
2018-09-01T14:20:52.459Z,23.63
2018-09-01T14:23:20.541Z,23.57
2018-09-01T14:25:48.622Z,23.67
2018-09-01T14:28:16.710Z,23.61
2018-09-01T14:30:44.829Z,23.59
2018-09-01T14:33:12.928Z,23.70
2018-09-01T14:35:41.011Z,23.80
2018-09-01T14:38:09.104Z,23.83
2018-09-01T14:40:37.191Z,24.01
2018-09-01T14:43:05.567Z,24.01
2018-09-01T14:45:33.671Z,23.93
2018-09-01T14:48:01.751Z,23.87
2018-09-01T14:50:30.016Z,23.82
2018-09-01T14:52:58.091Z,23.95
2018-09-01T14:55:26.209Z,23.92
2018-09-01T14:57:54.302Z,23.91
2018-09-01T15:00:22.382Z,23.86
2018-09-01T15:02:50.469Z,23.90
2018-09-01T15:05:18.551Z,23.80
2018-09-01T15:07:46.874Z,23.80
2018-09-01T15:10:15.011Z,23.71
2018-09-01T15:12:43.051Z,23.70
2018-09-01T15:15:11.110Z,23.62
2018-09-01T15:17:39.208Z,23.68
2018-09-01T15:20:07.346Z,23.71
2018-09-01T15:22:35.441Z,23.75
2018-09-01T15:25:03.587Z,23.83
2018-09-01T15:27:31.696Z,23.83
2018-09-01T15:29:59.765Z,23.70
2018-09-01T15:32:28.003Z,23.48
2018-09-01T15:34:56.066Z,23.47
2018-09-01T15:37:24.321Z,23.48
2018-09-01T15:39:52.661Z,23.54
2018-09-01T15:42:20.746Z,23.51
2018-09-01T15:44:48.938Z,23.46
2018-09-01T15:47:16.967Z,23.47
2018-09-01T15:49:45.454Z,23.47
2018-09-01T15:52:13.746Z,23.47
2018-09-01T15:54:41.824Z,23.33
2018-09-01T15:57:12.030Z,23.19
2018-09-01T15:59:40.358Z,23.06
2018-09-01T16:02:08.728Z,23.11
2018-09-01T16:04:36.853Z,23.15
2018-09-01T16:07:04.961Z,23.21
2018-09-01T16:09:33.073Z,23.21
2018-09-01T16:12:01.171Z,23.09
2018-09-01T16:14:29.260Z,22.99
2018-09-01T16:16:57.346Z,22.82
2018-09-01T16:19:25.464Z,22.76
2018-09-01T16:21:53.635Z,22.74
2018-09-01T16:24:21.736Z,22.61
2018-09-01T16:26:50.055Z,22.62
2018-09-01T16:29:18.155Z,22.57
2018-09-01T16:31:46.242Z,22.67
2018-09-01T16:34:14.351Z,22.66
2018-09-01T16:36:42.455Z,22.67
2018-09-01T16:39:10.518Z,22.68
2018-09-01T16:41:39.363Z,22.64
2018-09-01T16:44:07.488Z,22.66
2018-09-01T16:46:38.947Z,22.57
2018-09-01T16:49:07.264Z,22.52
2018-09-01T16:51:35.422Z,22.48
2018-09-01T16:54:03.526Z,22.45
2018-09-01T16:56:31.652Z,22.41
2018-09-01T16:58:59.881Z,22.44
2018-09-01T17:01:27.948Z,22.41
2018-09-01T17:03:56.015Z,22.28
2018-09-01T17:06:24.339Z,22.17
2018-09-01T17:08:52.391Z,22.14
2018-09-01T17:11:20.464Z,22.19
2018-09-01T17:13:48.554Z,22.21
2018-09-01T17:16:16.698Z,22.24
2018-09-01T17:18:44.796Z,22.17
2018-09-01T17:21:12.887Z,22.06
2018-09-01T17:23:40.951Z,22.02
2018-09-01T17:26:09.022Z,21.91
2018-09-01T17:28:37.204Z,21.84
2018-09-01T17:31:05.595Z,21.73
2018-09-01T17:33:33.716Z,21.59
2018-09-01T17:36:01.770Z,21.55
2018-09-01T17:38:29.851Z,21.48
2018-09-01T17:40:57.968Z,21.45
2018-09-01T17:43:26.051Z,21.44
2018-09-01T17:45:54.155Z,21.34
2018-09-01T17:48:22.503Z,21.32
2018-09-01T17:50:50.758Z,21.27
2018-09-01T17:53:18.837Z,21.22
2018-09-01T17:55:47.455Z,21.20
2018-09-01T17:58:15.798Z,21.14
2018-09-01T18:00:44.131Z,21.02
2018-09-01T18:03:12.360Z,20.84
2018-09-01T18:05:40.836Z,20.72
2018-09-01T18:08:08.956Z,20.63
2018-09-01T18:10:37.054Z,20.59
2018-09-01T18:13:05.180Z,20.59
2018-09-01T18:15:33.277Z,20.53
2018-09-01T18:18:01.343Z,20.47
2018-09-01T18:20:29.418Z,20.42
2018-09-01T18:22:57.646Z,20.30
2018-09-01T18:25:25.748Z,20.25
2018-09-01T18:27:53.832Z,20.20
2018-09-01T18:30:21.916Z,20.13
2018-09-01T18:32:50.016Z,20.04
2018-09-01T18:35:18.403Z,19.97
2018-09-01T18:37:46.691Z,19.92
2018-09-01T18:40:14.774Z,19.86
2018-09-01T18:42:42.853Z,19.79
2018-09-01T18:45:10.931Z,19.69
2018-09-01T18:47:39.001Z,19.65
2018-09-01T18:50:07.243Z,19.57
2018-09-01T18:52:35.727Z,19.49
2018-09-01T18:55:05.054Z,19.44
2018-09-01T18:57:33.132Z,19.35
2018-09-01T19:00:01.219Z,19.31
2018-09-01T19:02:29.428Z,19.24
2018-09-01T19:04:57.540Z,19.17
2018-09-01T19:07:25.631Z,19.12
2018-09-01T19:09:53.817Z,19.06
2018-09-01T19:12:21.917Z,19.00
2018-09-01T19:14:50.141Z,18.96
2018-09-01T19:17:18.277Z,18.88
2018-09-01T19:19:47.012Z,18.79
2018-09-01T19:22:15.098Z,18.76
2018-09-01T19:24:43.433Z,18.73
2018-09-01T19:27:11.500Z,18.68
2018-09-01T19:29:39.857Z,18.60
2018-09-01T19:32:08.268Z,18.58
2018-09-01T19:34:36.639Z,18.52
2018-09-01T19:37:05.037Z,18.47
2018-09-01T19:39:33.411Z,18.40
2018-09-01T19:42:01.776Z,18.38
2018-09-01T19:44:29.913Z,18.33
2018-09-01T19:46:57.988Z,18.26
2018-09-01T19:49:26.064Z,18.20
2018-09-01T19:51:54.138Z,18.15
2018-09-01T19:54:22.215Z,18.11
2018-09-01T19:56:50.282Z,18.05
2018-09-01T19:59:18.403Z,18.01
2018-09-01T20:01:46.558Z,17.97
2018-09-01T20:04:14.887Z,17.92
2018-09-01T20:06:42.996Z,17.88
2018-09-01T20:09:11.406Z,17.85
2018-09-01T20:11:39.674Z,17.80
2018-09-01T20:14:07.832Z,17.76
2018-09-01T20:16:36.076Z,17.73
2018-09-01T20:19:05.459Z,17.67
2018-09-01T20:21:33.546Z,17.63
2018-09-01T20:24:01.616Z,17.61
2018-09-01T20:26:29.952Z,17.55
2018-09-01T20:28:58.491Z,17.50
2018-09-01T20:31:26.583Z,17.49
2018-09-01T20:33:54.652Z,17.45
2018-09-01T20:36:23.333Z,17.42
2018-09-01T20:38:51.402Z,17.34
2018-09-01T20:41:19.474Z,17.29
2018-09-01T20:43:47.829Z,17.26
2018-09-01T20:46:15.915Z,17.24
2018-09-01T20:48:44.009Z,17.15
2018-09-01T20:51:12.075Z,17.12
2018-09-01T20:53:40.181Z,17.12
2018-09-01T20:56:08.239Z,17.07
2018-09-01T20:58:36.333Z,17.03
2018-09-01T21:01:04.387Z,17.03
2018-09-01T21:03:32.482Z,16.97
2018-09-01T21:06:00.559Z,16.96
2018-09-01T21:08:28.641Z,16.94
2018-09-01T21:10:56.719Z,16.93
2018-09-01T21:13:24.794Z,16.88
2018-09-01T21:15:52.880Z,16.85
2018-09-01T21:18:20.959Z,16.82
2018-09-01T21:20:55.626Z,16.80
2018-09-01T21:23:23.702Z,16.79
2018-09-01T21:25:51.776Z,16.77
2018-09-01T21:28:19.862Z,16.73
2018-09-01T21:30:47.947Z,16.69
2018-09-01T21:33:16.056Z,16.69
2018-09-01T21:35:44.167Z,16.62
2018-09-01T21:38:12.425Z,16.59
2018-09-01T21:40:40.510Z,16.56
2018-09-01T21:43:08.578Z,16.54
2018-09-01T21:45:36.654Z,16.51
2018-09-01T21:48:05.148Z,16.50
2018-09-01T21:50:33.215Z,16.49
2018-09-01T21:53:01.298Z,16.44
2018-09-01T21:55:29.434Z,16.41
2018-09-01T21:57:57.502Z,16.37
2018-09-01T22:00:25.584Z,16.35
2018-09-01T22:02:53.662Z,16.34
2018-09-01T22:05:21.751Z,16.32
2018-09-01T22:07:49.842Z,16.30
2018-09-01T22:10:17.915Z,16.28
2018-09-01T22:12:46.039Z,16.25
2018-09-01T22:15:14.307Z,16.22
2018-09-01T22:17:42.390Z,16.21
2018-09-01T22:20:10.466Z,16.19
2018-09-01T22:22:38.579Z,16.18
2018-09-01T22:25:06.687Z,16.17
2018-09-01T22:27:34.762Z,16.14
2018-09-01T22:30:02.843Z,16.12
2018-09-01T22:32:31.292Z,16.09
2018-09-01T22:34:59.355Z,16.05
2018-09-01T22:37:27.464Z,15.99
2018-09-01T22:39:55.562Z,15.96
2018-09-01T22:42:23.618Z,15.96
2018-09-01T22:44:51.741Z,15.95
2018-09-01T22:47:25.438Z,15.95
2018-09-01T22:49:53.560Z,15.93
2018-09-01T22:52:21.619Z,15.90
2018-09-01T22:54:49.866Z,15.87
2018-09-01T22:57:17.995Z,15.87
2018-09-01T22:59:46.095Z,15.85
2018-09-01T23:02:14.239Z,15.84
2018-09-01T23:04:42.307Z,15.83
2018-09-01T23:07:10.418Z,15.79
2018-09-01T23:09:38.514Z,15.78
2018-09-01T23:12:06.603Z,15.75
2018-09-01T23:14:34.684Z,15.73
2018-09-01T23:17:02.862Z,15.71
2018-09-01T23:19:30.988Z,15.67
2018-09-01T23:21:59.078Z,15.65
2018-09-01T23:24:27.150Z,15.63
2018-09-01T23:26:55.207Z,15.62
2018-09-01T23:29:23.279Z,15.61
2018-09-01T23:31:51.358Z,15.57
2018-09-01T23:34:19.410Z,15.57
2018-09-01T23:36:47.478Z,15.55
2018-09-01T23:39:15.756Z,15.53
2018-09-01T23:41:43.825Z,15.51
2018-09-01T23:44:11.888Z,15.47
2018-09-01T23:46:39.957Z,15.45
2018-09-01T23:49:08.024Z,15.44
2018-09-01T23:51:36.085Z,15.42
2018-09-01T23:54:05.027Z,15.34
2018-09-01T23:56:33.107Z,15.31
2018-09-01T23:59:01.519Z,15.29
